Terminal Aerodrome Forecast
Issued by NWS

Home | Current Version | Previous Version | Text Only | Print | Product List | Glossary On
Versions: 1 2 3 4 5 6 7 8 9 10 11 12 13
000
FTUS45 KSLC 191734
TAFENV
TAF
KENV 191734Z 1918/2018 11006KT P6SM SCT120
     FM200300 23008KT P6SM SCT120
     FM200600 VRB06KT P6SM SCT120
     FM201600 10007KT P6SM SCT100=

USA.gov is the U.S. government's official web portal to all federal, state and local government web resources and services.